createdAt,value
2022-09-09T00:03:28.496Z,94.54
2022-09-09T00:07:49.829Z,94.40
2022-09-09T00:11:53.040Z,94.28
2022-09-09T00:16:17.122Z,94.10
2022-09-09T00:20:36.924Z,94.05
2022-09-09T00:24:44.837Z,94.08
2022-09-09T00:28:59.845Z,94.53
2022-09-09T00:33:14.057Z,94.81
2022-09-09T00:37:16.089Z,94.50
2022-09-09T00:41:41.281Z,93.93
2022-09-09T00:46:25.991Z,93.74
2022-09-09T00:50:36.279Z,93.21
2022-09-09T00:54:57.138Z,92.97
2022-09-09T00:59:13.314Z,93.75
2022-09-09T01:03:32.093Z,93.79
2022-09-09T01:07:40.148Z,93.97
2022-09-09T01:12:13.133Z,93.91
2022-09-09T01:16:15.652Z,94.44
2022-09-09T01:20:20.472Z,94.58
2022-09-09T01:24:47.810Z,94.82
2022-09-09T01:28:53.414Z,95.03
2022-09-09T01:32:59.653Z,94.98
2022-09-09T01:37:06.074Z,95.09
2022-09-09T01:41:07.509Z,94.71
2022-09-09T01:45:09.926Z,94.38
2022-09-09T01:49:17.913Z,93.79
2022-09-09T01:53:21.619Z,93.39
2022-09-09T01:57:37.868Z,93.08
2022-09-09T02:01:55.011Z,93.35
2022-09-09T02:06:06.476Z,93.52
2022-09-09T02:10:20.913Z,93.05
2022-09-09T02:14:28.997Z,92.65
2022-09-09T02:18:39.588Z,92.43
2022-09-09T02:22:45.599Z,92.47
2022-09-09T02:26:50.129Z,92.82
2022-09-09T02:30:56.137Z,93.20
2022-09-09T02:35:04.850Z,93.59
2022-09-09T02:39:09.185Z,93.65
2022-09-09T02:43:17.432Z,93.99
2022-09-09T02:47:31.845Z,94.05
2022-09-09T02:51:50.365Z,94.13
2022-09-09T02:56:02.614Z,94.46
2022-09-09T03:00:05.036Z,94.20
2022-09-09T03:04:06.505Z,93.85
2022-09-09T03:08:07.966Z,93.86
2022-09-09T03:12:12.249Z,93.66
2022-09-09T03:16:13.682Z,94.09
2022-09-09T03:20:15.426Z,94.29
2022-09-09T03:24:22.925Z,94.52
2022-09-09T03:28:26.323Z,94.43
2022-09-09T03:32:27.885Z,95.02
2022-09-09T03:36:30.574Z,95.23
2022-09-09T03:40:32.229Z,95.18
2022-09-09T03:44:33.648Z,94.76
2022-09-09T03:48:35.490Z,94.77
2022-09-09T03:52:39.182Z,94.64
2022-09-09T03:56:42.680Z,94.62
2022-09-09T04:00:44.462Z,94.64
2022-09-09T04:04:46.013Z,94.54
2022-09-09T04:08:49.521Z,94.36
2022-09-09T04:12:58.217Z,94.55
2022-09-09T04:17:00.618Z,94.77
2022-09-09T04:21:02.364Z,95.11
2022-09-09T04:25:04.208Z,95.41
2022-09-09T04:29:06.222Z,95.70
2022-09-09T04:33:08.591Z,95.81
2022-09-09T04:37:10.733Z,96.13
2022-09-09T04:41:18.973Z,95.46
2022-09-09T04:45:20.307Z,95.41
2022-09-09T04:49:21.633Z,94.92
2022-09-09T04:53:23.616Z,94.59
2022-09-09T04:57:25.300Z,94.43
2022-09-09T05:01:28.087Z,93.98
2022-09-09T05:05:29.598Z,93.58
2022-09-09T05:09:31.559Z,93.53
2022-09-09T05:13:37.323Z,93.65
2022-09-09T05:17:48.051Z,93.90
2022-09-09T05:21:49.442Z,93.56
2022-09-09T05:25:58.206Z,93.85
2022-09-09T05:29:59.922Z,93.83
2022-09-09T05:34:01.640Z,93.78
2022-09-09T05:38:03.335Z,93.91
2022-09-09T05:42:05.621Z,93.57
2022-09-09T05:46:27.989Z,93.28
2022-09-09T05:50:36.037Z,93.35
2022-09-09T05:54:38.755Z,93.17
2022-09-09T05:58:40.178Z,92.72
2022-09-09T06:02:42.405Z,92.33
2022-09-09T06:06:44.059Z,92.27
2022-09-09T06:10:45.451Z,92.61
2022-09-09T06:14:54.446Z,92.61
2022-09-09T06:19:03.982Z,92.95
2022-09-09T06:23:05.335Z,93.26
2022-09-09T06:27:06.973Z,93.32
2022-09-09T06:31:11.384Z,92.84
2022-09-09T06:35:13.650Z,92.39
2022-09-09T06:39:16.840Z,92.61
2022-09-09T06:43:18.873Z,92.43
2022-09-09T06:47:27.137Z,91.68
2022-09-09T06:51:31.125Z,91.67
2022-09-09T06:55:32.561Z,91.64
2022-09-09T06:59:33.883Z,91.57
2022-09-09T07:03:36.006Z,90.79
2022-09-09T07:07:37.698Z,90.33
2022-09-09T07:11:47.268Z,89.33
2022-09-09T07:15:48.785Z,88.44
2022-09-09T07:19:50.169Z,88.14
2022-09-09T07:23:52.460Z,87.65
2022-09-09T07:27:53.721Z,87.10
2022-09-09T07:31:55.312Z,87.00
2022-09-09T07:36:11.261Z,86.54
2022-09-09T07:40:12.769Z,85.34
2022-09-09T07:44:17.413Z,84.91
2022-09-09T07:48:18.749Z,84.54
2022-09-09T07:52:21.776Z,85.09
2022-09-09T07:56:24.154Z,83.78
2022-09-09T08:00:32.054Z,82.54
2022-09-09T08:04:33.376Z,81.66
2022-09-09T08:08:36.801Z,82.14
2022-09-09T08:12:38.166Z,81.16
2022-09-09T08:16:49.077Z,81.45
2022-09-09T08:20:50.861Z,80.62
2022-09-09T08:24:59.281Z,78.88
2022-09-09T08:29:09.120Z,78.49
2022-09-09T08:33:10.839Z,77.03
2022-09-09T08:37:12.207Z,76.01
2022-09-09T08:41:44.722Z,74.31
2022-09-09T08:45:59.266Z,73.54
2022-09-09T08:50:10.895Z,72.12
2022-09-09T08:54:12.248Z,71.61
2022-09-09T08:58:22.877Z,70.18
2022-09-09T09:02:40.195Z,68.35
2022-09-09T09:07:23.259Z,66.89
2022-09-09T09:11:24.799Z,64.61
2022-09-09T09:15:32.710Z,63.33
2022-09-09T09:19:36.658Z,63.83
2022-09-09T09:23:56.225Z,62.57
2022-09-09T09:28:22.725Z,64.86
2022-09-09T09:32:25.921Z,65.36
2022-09-09T09:36:43.667Z,67.02
2022-09-09T09:40:59.439Z,67.28
2022-09-09T09:45:46.786Z,67.48
2022-09-09T09:50:10.186Z,64.41
2022-09-09T09:54:39.494Z,62.12
2022-09-09T09:58:47.336Z,62.17
2022-09-09T10:02:56.159Z,61.72
2022-09-09T10:06:57.519Z,58.69
2022-09-09T10:11:05.041Z,57.80
2022-09-09T10:15:26.738Z,57.15
2022-09-09T10:19:43.125Z,57.51
2022-09-09T10:23:59.709Z,58.10
2022-09-09T10:28:24.076Z,61.43
2022-09-09T10:32:57.844Z,64.50
2022-09-09T10:36:59.494Z,67.07
2022-09-09T10:41:41.638Z,69.47
2022-09-09T10:46:04.433Z,71.56
2022-09-09T10:50:15.139Z,72.65
2022-09-09T10:54:35.037Z,72.45
2022-09-09T10:58:47.706Z,72.18
2022-09-09T11:02:54.705Z,69.17
2022-09-09T11:06:56.749Z,67.33
2022-09-09T11:11:10.461Z,64.47
2022-09-09T11:15:36.766Z,63.80
2022-09-09T11:19:44.486Z,60.87
2022-09-09T11:24:10.744Z,60.58
2022-09-09T11:29:08.214Z,58.22
2022-09-09T11:33:35.656Z,57.83
2022-09-09T11:37:47.811Z,59.31
2022-09-09T11:41:49.261Z,60.69
2022-09-09T11:46:01.031Z,61.66
2022-09-09T11:50:17.185Z,64.01
2022-09-09T11:54:57.172Z,64.77
2022-09-09T11:59:20.682Z,68.13
2022-09-09T12:03:41.114Z,71.45
2022-09-09T12:07:54.789Z,71.26
2022-09-09T12:12:29.408Z,70.54
2022-09-09T12:16:37.426Z,65.49
2022-09-09T12:20:39.970Z,64.23
2022-09-09T12:24:49.218Z,63.71
2022-09-09T12:29:09.545Z,64.11
2022-09-09T12:33:19.897Z,63.75
2022-09-09T12:37:27.364Z,63.75
2022-09-09T12:41:32.241Z,65.12
2022-09-09T12:45:34.411Z,67.26
2022-09-09T12:49:39.532Z,67.92
2022-09-09T12:53:40.921Z,67.94
2022-09-09T12:57:51.262Z,70.14
2022-09-09T13:01:57.809Z,71.94
2022-09-09T13:06:12.846Z,71.87
2022-09-09T13:10:25.788Z,71.78
2022-09-09T13:14:40.776Z,69.75
2022-09-09T13:18:43.157Z,67.10
2022-09-09T13:22:45.226Z,65.43
2022-09-09T13:26:57.555Z,62.71
2022-09-09T13:31:19.566Z,64.52
2022-09-09T13:35:26.041Z,62.89
2022-09-09T13:39:34.494Z,63.22
2022-09-09T13:43:46.602Z,62.21
2022-09-09T13:47:48.677Z,61.24
2022-09-09T13:52:06.049Z,60.93
2022-09-09T13:56:09.857Z,60.95
2022-09-09T14:00:29.117Z,60.15
2022-09-09T14:04:31.639Z,58.47
2022-09-09T14:08:38.110Z,58.54
2022-09-09T14:12:39.733Z,58.38
2022-09-09T14:16:41.498Z,59.75
2022-09-09T14:20:42.877Z,60.77
2022-09-09T14:24:44.211Z,61.59
2022-09-09T14:28:55.775Z,60.65
2022-09-09T14:33:04.702Z,60.27
2022-09-09T14:37:06.106Z,60.40
2022-09-09T14:41:17.969Z,59.46
2022-09-09T14:45:21.346Z,60.69
2022-09-09T14:49:25.590Z,61.19
2022-09-09T14:53:30.738Z,60.41
2022-09-09T14:57:38.973Z,60.27
2022-09-09T15:01:59.380Z,61.57
2022-09-09T15:06:22.412Z,62.70
2022-09-09T15:15:32.366Z,63.70
2022-09-09T15:19:53.181Z,64.23
2022-09-09T15:24:29.057Z,64.04
2022-09-09T15:28:47.769Z,62.49
2022-09-09T15:37:34.544Z,71.62
2022-09-09T15:41:40.807Z,73.02
2022-09-09T15:45:51.032Z,76.54
2022-09-09T15:49:57.030Z,79.42
2022-09-09T15:54:01.859Z,80.41
2022-09-09T15:58:03.620Z,81.99
2022-09-09T16:02:15.789Z,80.22
2022-09-09T16:06:25.988Z,82.83
2022-09-09T16:10:40.166Z,84.23
2022-09-09T16:14:46.188Z,85.42
2022-09-09T16:19:06.534Z,84.84
2022-09-09T16:23:17.308Z,81.05
2022-09-09T16:27:26.239Z,76.98
2022-09-09T16:31:43.417Z,76.16
2022-09-09T16:35:51.208Z,75.28
2022-09-09T16:40:00.495Z,77.97
2022-09-09T16:44:15.837Z,79.68
2022-09-09T16:48:29.052Z,80.92
2022-09-09T16:52:47.044Z,82.19
2022-09-09T16:56:54.060Z,83.16
2022-09-09T17:01:05.406Z,83.28
2022-09-09T17:05:07.274Z,84.44
2022-09-09T17:09:11.606Z,84.72
2022-09-09T17:13:14.267Z,85.21
2022-09-09T17:17:31.530Z,84.59
2022-09-09T17:21:34.382Z,84.87
2022-09-09T17:25:36.886Z,85.79
2022-09-09T17:29:45.706Z,86.38
2022-09-09T17:33:50.821Z,86.68
2022-09-09T17:37:54.334Z,86.86
2022-09-09T17:42:02.382Z,87.27
2022-09-09T17:46:13.869Z,88.92
2022-09-09T17:50:22.427Z,88.92
2022-09-09T17:54:30.462Z,89.46
2022-09-09T17:58:31.805Z,90.11
2022-09-09T18:02:33.290Z,91.12
2022-09-09T18:06:37.949Z,91.50
2022-09-09T18:10:46.452Z,91.63
2022-09-09T18:14:50.573Z,92.34
2022-09-09T18:18:52.629Z,93.22
2022-09-09T18:23:00.421Z,93.13
2022-09-09T18:27:08.492Z,93.02
2022-09-09T18:31:12.349Z,92.90
2022-09-09T18:35:13.903Z,93.15
2022-09-09T18:39:18.360Z,93.78
2022-09-09T18:43:19.698Z,93.92
2022-09-09T18:47:28.425Z,94.95
2022-09-09T18:51:30.430Z,94.89
2022-09-09T18:55:32.787Z,95.04
2022-09-09T18:59:34.065Z,94.91
2022-09-09T19:03:36.168Z,94.97
2022-09-09T19:07:40.268Z,94.79
2022-09-09T19:11:42.326Z,94.65
2022-09-09T19:15:44.168Z,95.60
2022-09-09T19:19:45.688Z,95.26
2022-09-09T19:23:47.678Z,94.93
2022-09-09T19:27:50.023Z,95.50
2022-09-09T19:32:36.331Z,95.45
2022-09-09T19:36:15.721Z,95.79
2022-09-09T19:40:17.421Z,95.65
2022-09-09T19:44:18.834Z,95.87
2022-09-09T19:48:27.461Z,95.71
2022-09-09T19:52:42.476Z,96.12
2022-09-09T19:56:50.530Z,96.11
2022-09-09T20:00:51.933Z,95.90
2022-09-09T20:04:54.282Z,95.85
2022-09-09T20:08:56.130Z,95.40
2022-09-09T20:12:57.634Z,94.72
2022-09-09T20:17:05.447Z,94.55
2022-09-09T20:21:10.597Z,94.96
2022-09-09T20:25:11.915Z,94.76
2022-09-09T20:29:16.371Z,95.10
2022-09-09T20:33:18.385Z,94.99
2022-09-09T20:37:20.831Z,95.07
2022-09-09T20:41:22.747Z,95.36
2022-09-09T20:45:24.216Z,95.88
2022-09-09T20:49:26.268Z,96.31
2022-09-09T20:53:27.702Z,96.36
2022-09-09T20:57:29.025Z,96.56
2022-09-09T21:01:30.810Z,96.88
2022-09-09T21:05:32.447Z,97.01
2022-09-09T21:09:33.794Z,96.85
2022-09-09T21:13:38.975Z,96.86
2022-09-09T21:17:40.354Z,96.70
2022-09-09T21:21:42.580Z,96.89
2022-09-09T21:25:44.437Z,96.65
2022-09-09T21:29:47.205Z,96.96
2022-09-09T21:33:49.030Z,96.93
2022-09-09T21:37:50.366Z,96.26
2022-09-09T21:41:51.765Z,96.41
2022-09-09T21:45:53.699Z,95.92
2022-09-09T21:49:55.008Z,96.08
2022-09-09T21:53:56.684Z,96.17
2022-09-09T21:57:58.178Z,95.70
2022-09-09T22:01:59.572Z,95.81
2022-09-09T22:06:08.441Z,95.89
2022-09-09T22:10:12.245Z,95.70
2022-09-09T22:14:13.999Z,95.06
2022-09-09T22:18:16.293Z,95.42
2022-09-09T22:22:18.352Z,95.99
2022-09-09T22:26:20.027Z,96.46
2022-09-09T22:30:21.693Z,96.22
2022-09-09T22:34:23.605Z,96.57
2022-09-09T22:38:24.995Z,96.58
2022-09-09T22:42:26.829Z,96.58
2022-09-09T22:46:28.190Z,95.70
2022-09-09T22:50:37.840Z,95.82
2022-09-09T22:54:42.348Z,95.38
2022-09-09T22:58:44.534Z,94.06
2022-09-09T23:02:48.697Z,94.19
2022-09-09T23:06:50.040Z,93.15
2022-09-09T23:11:01.625Z,93.72
2022-09-09T23:15:10.196Z,94.02
2022-09-09T23:19:16.046Z,93.65
2022-09-09T23:23:17.525Z,93.79
2022-09-09T23:27:21.234Z,94.01
2022-09-09T23:31:24.756Z,94.10
2022-09-09T23:35:26.529Z,94.23
2022-09-09T23:39:27.880Z,94.31
2022-09-09T23:43:29.274Z,94.97
2022-09-09T23:47:30.681Z,94.53
2022-09-09T23:51:32.319Z,94.90
2022-09-09T23:55:34.614Z,94.77
2022-09-09T23:59:35.921Z,94.59
